.
WxDataArchive / Data Records for 2015-07-28
2015-07-27 July 2015 2015-07-29

Data Records for Tuesday, 28 July 2015

Time	Temp	Chill	HIndex	Humid	Dewpt	 Wind 	HiWind	WindDir	Rain 	Barom
-----	----	-----	------	-----	-----	------	------	-------	-----	-----
00:00	71.1	71.1	71.1	77	63.5	0	0	---	0.00	29.975 
00:05	70.9	70.9	70.9	77	63.3	0	0	---	0.00	29.975 
00:10	70.9	70.9	70.9	78	63.7	0	0	---	0.00	29.975 
00:15	70.8	70.8	70.8	79	64.0	0	0	---	0.00	29.975 
00:20	70.6	70.6	70.6	79	63.8	0	0	---	0.00	29.975 
00:25	70.4	70.4	70.4	80	63.9	0	0	---	0.00	29.975 
00:30	70.3	70.3	70.3	80	63.8	0	0	---	0.00	29.974 
00:35	70.3	70.3	70.3	80	63.8	0	0	---	0.00	29.974 
00:40	70.1	70.1	70.1	80	63.6	0	0	---	0.00	29.974 
00:45	69.9	69.9	69.9	79	63.1	0	0	---	0.00	29.976 
00:50	69.9	69.9	69.9	79	63.1	0	0	---	0.00	29.976 
00:55	69.8	69.8	69.8	80	63.3	0	0	---	0.00	29.976 
01:00	69.8	69.8	69.8	80	63.3	0	0	---	0.00	29.974 
01:05	69.6	69.6	69.6	80	63.1	0	0	---	0.00	29.974 
01:10	69.6	69.6	69.6	81	63.5	0	0	---	0.00	29.974 
01:15	69.4	69.4	69.4	81	63.3	0	0	---	0.00	29.976 
01:20	69.3	69.3	69.3	81	63.2	0	0	---	0.00	29.976 
01:25	69.1	69.1	69.1	81	63.0	0	0	---	0.00	29.976 
01:30	69.1	69.1	69.1	82	63.4	0	0	---	0.00	29.974 
01:35	69.1	69.1	69.1	82	63.4	0	0	---	0.00	29.974 
01:40	69.1	69.1	69.1	81	63.0	0	0	---	0.00	29.974 
01:45	69.1	69.1	69.1	81	63.0	0	0	---	0.00	29.969 
01:50	69.1	69.1	69.1	81	63.0	0	0	---	0.00	29.969 
01:55	68.9	68.9	68.9	81	62.8	0	0	---	0.00	29.969 
02:00	68.9	68.9	68.9	81	62.8	0	0	---	0.00	29.968 
02:05	68.8	68.8	68.8	81	62.7	0	0	---	0.00	29.968 
02:10	68.8	68.8	68.8	81	62.7	0	0	---	0.00	29.968 
02:15	68.8	68.8	68.8	81	62.7	0	0	---	0.00	29.961 
02:20	68.6	68.6	68.6	81	62.5	0	0	---	0.00	29.961 
02:25	68.6	68.6	68.6	81	62.5	0	0	---	0.00	29.961 
02:30	68.4	68.4	68.4	81	62.3	0	0	---	0.00	29.962 
02:35	68.4	68.4	68.4	82	62.7	0	0	---	0.00	29.962 
02:40	68.4	68.4	68.4	82	62.7	0	0	---	0.00	29.962 
02:45	68.4	68.4	68.4	82	62.7	0	0	---	0.00	29.955 
02:50	68.4	68.4	68.4	82	62.7	0	0	---	0.00	29.955 
02:55	68.4	68.4	68.4	81	62.3	0	0	---	0.00	29.955 
03:00	68.4	68.4	68.4	81	62.3	0	0	---	0.00	29.951 
03:05	68.4	68.4	68.4	81	62.3	0	0	---	0.00	29.951 
03:10	68.4	68.4	68.4	81	62.3	0	0	---	0.00	29.951 
03:15	68.3	68.3	68.3	81	62.2	0	0	---	0.00	29.950 
03:20	68.1	68.1	68.1	81	62.0	0	0	---	0.00	29.950 
03:25	68.1	68.1	68.1	82	62.4	0	0	---	0.00	29.950 
03:30	67.9	67.9	67.9	82	62.2	0	0	---	0.00	29.957 
03:35	67.9	67.9	67.9	82	62.2	0	0	---	0.00	29.957 
03:40	67.8	67.8	67.8	82	62.1	0	0	---	0.00	29.957 
03:45	67.8	67.8	67.8	82	62.1	0	1	112	0.00	29.955 
03:50	67.9	67.9	67.9	82	62.2	0	1	112	0.00	29.955 
03:55	68.1	68.1	68.1	81	62.0	0	0	---	0.00	29.955 
04:00	68.3	68.3	68.3	81	62.2	0	0	---	0.00	29.961 
04:05	68.3	68.3	68.3	80	61.9	0	0	---	0.00	29.961 
04:10	68.3	68.3	68.3	80	61.9	0	0	---	0.00	29.961 
04:15	68.1	68.1	68.1	81	62.0	0	0	---	0.00	29.958 
04:20	68.1	68.1	68.1	81	62.0	0	0	---	0.00	29.958 
04:25	67.9	67.9	67.9	81	61.8	0	0	---	0.00	29.958 
04:30	67.9	67.9	67.9	81	61.8	0	0	---	0.00	29.950 
04:35	67.9	67.9	67.9	81	61.8	0	1	112	0.00	29.950 
04:40	67.8	67.8	67.8	81	61.7	0	0	---	0.00	29.950 
04:45	67.8	67.8	67.8	81	61.7	0	0	---	0.00	29.949 
04:50	67.8	67.8	67.8	80	61.4	0	0	---	0.00	29.949 
04:55	67.8	67.8	67.8	80	61.4	0	0	---	0.00	29.949 
05:00	67.8	67.8	67.8	80	61.4	0	0	---	0.00	29.958 
05:05	67.8	67.8	67.8	80	61.4	0	0	---	0.00	29.958 
05:10	67.6	67.6	67.6	80	61.2	0	0	---	0.00	29.958 
05:15	67.6	67.6	67.6	80	61.2	0	2	112	0.00	29.959 
05:20	67.6	67.6	67.6	80	61.2	0	0	---	0.00	29.959 
05:25	67.6	67.6	67.6	80	61.2	0	0	---	0.00	29.959 
05:30	67.4	67.4	67.4	81	61.4	0	0	---	0.00	29.956 
05:35	67.4	67.4	67.4	81	61.4	0	0	---	0.00	29.956 
05:40	67.3	67.3	67.3	81	61.3	0	0	---	0.00	29.956 
05:45	67.3	67.3	67.3	81	61.3	0	1	112	0.00	29.950 
05:50	67.3	67.3	67.3	81	61.3	0	0	---	0.00	29.950 
05:55	67.1	67.1	67.1	81	61.1	0	0	---	0.00	29.950 
06:00	67.1	67.1	67.1	81	61.1	0	0	---	0.00	29.956 
06:05	66.9	66.9	66.9	82	61.2	0	0	---	0.00	29.956 
06:10	66.8	66.8	66.8	82	61.1	0	0	---	0.00	29.956 
06:15	66.6	66.6	66.6	82	60.9	0	0	---	0.00	29.962 
06:20	66.4	66.4	66.4	83	61.1	0	0	---	0.00	29.962 
06:25	66.3	66.3	66.3	83	61.0	0	0	---	0.00	29.962 
06:30	66.1	66.1	66.1	83	60.8	0	0	---	0.00	29.973 
06:35	66.0	66.0	66.0	84	61.0	0	0	---	0.00	29.973 
06:40	65.8	65.8	65.8	84	60.8	0	0	---	0.00	29.973 
06:45	65.8	65.8	65.8	84	60.8	0	0	---	0.00	29.971 
06:50	65.6	65.6	65.6	84	60.6	0	0	---	0.00	29.971 
06:55	65.6	65.6	65.6	85	61.0	0	0	---	0.00	29.971 
07:00	65.6	65.6	65.6	85	61.0	0	0	---	0.00	29.973 
07:05	65.8	65.8	65.8	86	61.5	0	0	---	0.00	29.973 
07:10	66.1	66.1	66.1	85	61.5	0	2	112	0.00	29.973 
07:15	66.4	66.4	66.4	84	61.4	1	3	112	0.00	29.978 
07:20	66.8	66.8	66.8	84	61.8	0	3	112	0.00	29.978 
07:25	66.9	66.9	66.9	84	61.9	0	1	112	0.00	29.978 
07:30	67.3	67.3	67.3	83	62.0	0	2	112	0.00	29.977 
07:35	67.6	67.6	67.6	82	61.9	1	3	112	0.00	29.977 
07:40	67.9	67.9	67.9	82	62.2	0	2	112	0.00	29.977 
07:45	68.1	68.1	68.1	82	62.4	0	3	112	0.00	29.976 
07:50	68.6	68.6	68.6	81	62.5	0	2	112	0.00	29.976 
07:55	69.3	69.3	69.3	80	62.9	0	1	112	0.00	29.976 
08:00	69.8	69.8	69.8	79	63.0	1	4	68	0.00	29.977 
08:05	70.3	70.3	70.3	78	63.1	0	1	68	0.00	29.977 
08:10	70.6	70.6	70.6	77	63.0	1	3	68	0.00	29.977 
08:15	71.1	71.1	71.1	77	63.5	0	3	68	0.00	29.976 
08:20	71.6	71.6	71.6	77	64.0	0	1	68	0.00	29.976 
08:25	72.1	72.1	72.1	75	63.7	1	3	68	0.00	29.976 
08:30	72.3	72.3	72.3	76	64.3	1	4	68	0.00	29.979 
08:35	72.3	72.3	72.3	76	64.3	1	4	68	0.00	29.979 
08:40	72.5	72.5	72.5	77	64.9	1	3	68	0.00	29.979 
08:45	72.8	72.8	72.8	77	65.2	1	3	68	0.00	29.976 
08:50	73.2	73.2	73.2	76	65.2	1	4	112	0.00	29.976 
08:55	73.7	73.7	73.7	76	65.6	1	4	90	0.00	29.976 
09:00	74.0	74.0	74.0	76	65.9	1	4	90	0.00	29.979 
09:05	74.4	74.4	74.4	76	66.3	1	4	90	0.00	29.979 
09:10	74.9	74.9	74.9	74	66.0	0	2	90	0.00	29.979 
09:15	75.3	75.3	76.6	74	66.4	0	3	90	0.00	29.981 
09:20	75.8	75.8	77.2	74	66.9	0	2	90	0.00	29.981 
09:25	76.3	76.3	77.9	72	66.6	1	4	90	0.00	29.981 
09:30	76.3	76.3	77.8	73	67.0	1	4	90	0.00	29.988 
09:35	76.5	76.5	78.1	73	67.2	1	4	90	0.00	29.988 
09:40	76.7	76.7	78.3	73	67.4	1	4	45	0.00	29.988 
09:45	76.8	76.8	78.5	73	67.5	1	4	90	0.00	29.974 
09:50	77.2	77.2	79.0	73	67.9	1	3	90	0.00	29.974 
09:55	77.4	77.4	79.3	71	67.2	1	3	90	0.00	29.974 
10:00	77.9	77.9	79.9	69	66.9	1	3	90	0.00	29.975 
10:05	78.1	78.1	80.1	69	67.1	1	4	90	0.00	29.975 
10:10	78.5	78.5	80.7	69	67.5	0	3	90	0.00	29.975 
10:15	79.0	79.0	81.3	69	67.9	0	2	90	0.00	29.969 
10:20	79.8	79.8	82.4	68	68.3	0	3	90	0.00	29.969 
10:25	80.1	80.1	82.5	65	67.2	1	4	90	0.00	29.969 
10:30	80.3	80.3	82.5	63	66.5	1	3	90	0.00	29.960 
10:35	80.9	80.9	82.8	59	65.2	1	4	90	0.00	29.960 
10:40	81.1	81.1	83.2	60	65.9	1	3	90	0.00	29.960 
10:45	81.2	81.2	83.2	59	65.5	2	4	68	0.00	29.960 
10:50	81.4	81.4	83.8	61	66.6	1	3	68	0.00	29.960 
10:55	81.8	81.8	84.1	60	66.5	0	2	68	0.00	29.960 
11:00	82.2	82.2	84.5	59	66.4	1	4	90	0.00	29.957 
11:05	82.4	82.4	84.8	59	66.6	1	4	90	0.00	29.957 
11:10	82.8	82.8	85.0	57	66.0	0	4	90	0.00	29.957 
11:15	83.0	83.0	85.5	58	66.7	1	3	90	0.00	29.958 
11:20	83.0	83.0	85.3	57	66.2	1	3	90	0.00	29.958 
11:25	83.6	83.6	85.9	56	66.2	0	4	90	0.00	29.958 
11:30	84.1	84.1	86.7	56	66.7	1	3	90	0.00	29.960 
11:35	84.5	84.5	86.7	54	66.0	1	3	90	0.00	29.960 
11:40	84.5	84.5	87.3	56	67.0	1	4	90	0.00	29.960 
11:45	84.7	84.7	87.0	54	66.2	1	4	90	0.00	29.964 
11:50	85.1	85.1	87.7	54	66.6	0	1	90	0.00	29.964 
11:55	85.5	85.5	88.0	53	66.4	1	3	90	0.00	29.964 
12:00	85.9	85.9	88.6	53	66.7	1	3	112	0.00	29.961 
12:05	86.1	86.1	89.2	54	67.5	0	2	112	0.00	29.961 
12:10	86.1	86.1	88.9	53	66.9	1	4	112	0.00	29.961 
12:15	86.1	86.1	88.9	53	66.9	1	5	112	0.00	29.968 
12:20	86.3	86.3	89.3	53	67.1	0	2	112	0.00	29.968 
12:25	86.7	86.7	89.6	52	66.9	1	3	22	0.00	29.968 
12:30	87.2	87.2	89.7	50	66.3	0	3	22	0.00	29.971 
12:35	87.2	87.2	90.4	52	67.4	2	6	90	0.00	29.971 
12:40	87.2	87.2	89.7	50	66.3	1	5	90	0.00	29.971 
12:45	86.5	86.5	89.3	52	66.7	1	4	90	0.00	29.970 
12:50	87.0	87.0	89.4	50	66.1	1	4	90	0.00	29.970 
12:55	87.2	87.2	90.1	51	66.8	1	2	90	0.00	29.970 
13:00	87.6	87.6	90.0	49	66.0	0	2	90	0.00	29.971 
13:05	87.8	87.8	90.4	49	66.2	1	3	90	0.00	29.971 
13:10	87.6	87.6	90.7	51	67.2	1	4	90	0.00	29.971 
13:15	87.6	87.6	90.0	49	66.0	0	1	68	0.00	29.965 
13:20	87.8	87.8	90.7	50	66.8	0	3	68	0.00	29.965 
13:25	88.0	88.0	90.7	49	66.4	1	3	68	0.00	29.965 
13:30	88.2	88.2	91.0	49	66.6	0	1	68	0.00	29.958 
13:35	88.4	88.4	91.7	50	67.4	1	4	90	0.00	29.958 
13:40	88.2	88.2	91.4	50	67.2	1	4	90	0.00	29.958 
13:45	88.0	88.0	91.4	51	67.6	0	2	90	0.00	29.952 
13:50	88.0	88.0	91.0	50	67.0	1	3	90	0.00	29.952 
13:55	88.2	88.2	90.7	48	66.0	0	1	90	0.00	29.952 
14:00	88.6	88.6	92.1	50	67.5	0	2	90	0.00	29.950 
14:05	88.4	88.4	91.3	49	66.8	1	4	90	0.00	29.950 
14:10	88.4	88.4	91.3	49	66.8	0	3	90	0.00	29.950 
14:15	88.8	88.8	92.8	51	68.3	0	2	90	0.00	29.947 
14:20	89.0	89.0	92.4	49	67.3	1	3	90	0.00	29.947 
14:25	88.8	88.8	92.4	50	67.7	2	5	90	0.00	29.947 
14:30	88.8	88.8	91.6	48	66.5	0	2	112	0.00	29.940 
14:35	89.3	89.3	93.3	50	68.2	0	2	112	0.00	29.940 
14:40	89.5	89.5	93.2	49	67.8	0	3	112	0.00	29.940 
14:45	89.5	89.5	92.4	47	66.6	1	3	112	0.00	29.939 
14:50	89.3	89.3	94.2	52	69.3	1	4	112	0.00	29.939 
14:55	89.5	89.5	93.2	49	67.8	0	2	112	0.00	29.939 
15:00	89.7	89.7	94.0	50	68.5	1	3	112	0.00	29.936 
15:05	89.9	89.9	93.5	48	67.5	1	3	135	0.00	29.936 
15:10	89.7	89.7	93.2	48	67.4	1	4	135	0.00	29.936 
15:15	88.8	88.8	92.0	49	67.1	1	3	135	0.00	29.938 
15:20	88.6	88.6	91.7	49	67.0	0	2	135	0.00	29.938 
15:25	88.6	88.6	92.5	51	68.1	0	0	---	0.00	29.938 
15:30	88.6	88.6	92.9	52	68.7	0	1	135	0.00	29.931 
15:35	88.8	88.8	92.8	51	68.3	1	3	135	0.00	29.931 
15:40	88.4	88.4	91.7	50	67.4	0	2	135	0.00	29.931 
15:45	88.4	88.4	92.1	51	67.9	0	4	135	0.00	29.927 
15:50	88.6	88.6	92.1	50	67.5	0	2	135	0.00	29.927 
15:55	88.4	88.4	92.1	51	67.9	1	3	135	0.00	29.927 
16:00	88.2	88.2	92.1	52	68.3	1	4	90	0.00	29.924 
16:05	88.6	88.6	92.5	51	68.1	1	3	90	0.00	29.924 
16:10	88.4	88.4	91.0	48	66.2	1	4	90	0.00	29.924 
16:15	88.6	88.6	92.9	52	68.7	1	4	90	0.00	29.923 
16:20	88.6	88.6	91.7	49	67.0	1	6	90	0.00	29.923 
16:25	88.4	88.4	91.3	49	66.8	1	4	90	0.00	29.923 
16:30	88.6	88.6	92.1	50	67.5	0	2	90	0.00	29.914 
16:35	88.6	88.6	92.1	50	67.5	1	3	90	0.00	29.914 
16:40	88.4	88.4	92.1	51	67.9	1	4	90	0.00	29.914 
16:45	88.4	88.4	91.7	50	67.4	0	3	90	0.00	29.913 
16:50	88.6	88.6	92.1	50	67.5	0	2	90	0.00	29.913 
16:55	88.8	88.8	92.0	49	67.1	0	3	90	0.00	29.913 
17:00	88.8	88.8	92.0	49	67.1	1	3	90	0.00	29.910 
17:05	88.8	88.8	92.0	49	67.1	1	3	90	0.00	29.910 
17:10	89.0	89.0	92.0	48	66.7	1	3	90	0.00	29.910 
17:15	89.3	89.3	92.1	47	66.4	0	1	90	0.00	29.909 
17:20	89.7	89.7	92.8	47	66.7	0	3	90	0.00	29.909 
17:25	89.7	89.7	92.8	47	66.7	0	1	90	0.00	29.909 
17:30	89.3	89.3	91.7	46	65.8	1	5	90	0.00	29.906 
17:35	89.0	89.0	91.6	47	66.1	0	2	90	0.00	29.906 
17:40	89.0	89.0	92.0	48	66.7	0	1	90	0.00	29.906 
17:45	89.5	89.5	92.4	47	66.6	0	1	90	0.00	29.906 
17:50	90.1	90.1	92.7	45	65.9	0	0	---	0.00	29.906 
17:55	90.1	90.1	93.5	47	67.1	1	3	90	0.00	29.906 
18:00	89.7	89.7	93.6	49	68.0	0	2	90	0.00	29.901 
18:05	89.5	89.5	92.4	47	66.6	0	2	90	0.00	29.901 
18:10	89.3	89.3	91.4	45	65.1	0	1	90	0.00	29.901 
18:15	89.0	89.0	92.0	48	66.7	0	1	90	0.00	29.896 
18:20	88.8	88.8	91.3	47	65.9	0	1	90	0.00	29.896 
18:25	88.4	88.4	91.3	49	66.8	0	1	90	0.00	29.896 
18:30	88.0	88.0	91.0	50	67.0	0	1	90	0.00	29.894 
18:35	87.8	87.8	90.4	49	66.2	0	1	90	0.00	29.894 
18:40	87.6	87.6	90.0	49	66.0	0	1	90	0.00	29.894 
18:45	87.6	87.6	90.4	50	66.6	0	1	90	0.00	29.887 
18:50	87.6	87.6	90.4	50	66.6	0	1	90	0.00	29.887 
18:55	87.4	87.4	90.1	50	66.4	0	2	90	0.00	29.887 
19:00	87.2	87.2	90.1	51	66.8	0	1	90	0.00	29.880 
19:05	87.0	87.0	89.7	51	66.6	0	2	90	0.00	29.880 
19:10	87.0	87.0	90.1	52	67.2	0	1	90	0.00	29.880 
19:15	86.7	86.7	89.9	53	67.5	0	2	90	0.00	29.870 
19:20	86.5	86.5	89.6	53	67.3	0	1	90	0.00	29.870 
19:25	86.5	86.5	89.3	52	66.7	0	1	90	0.00	29.870 
19:30	86.5	86.5	89.3	52	66.7	0	1	90	0.00	29.868 
19:35	86.5	86.5	89.3	52	66.7	0	2	90	0.00	29.868 
19:40	86.3	86.3	88.9	52	66.6	0	1	90	0.00	29.868 
19:45	86.3	86.3	88.9	52	66.6	0	0	---	0.00	29.869 
19:50	86.3	86.3	89.3	53	67.1	0	1	90	0.00	29.869 
19:55	86.1	86.1	88.9	53	66.9	0	0	---	0.00	29.869 
20:00	86.1	86.1	88.9	53	66.9	0	1	90	0.00	29.877 
20:05	85.9	85.9	88.9	54	67.3	0	0	---	0.00	29.877 
20:10	85.9	85.9	89.2	55	67.8	0	1	90	0.00	29.877 
20:15	85.7	85.7	88.9	55	67.6	0	1	90	0.00	29.870 
20:20	85.3	85.3	88.2	55	67.3	0	2	90	0.00	29.870 
20:25	85.1	85.1	87.9	55	67.1	0	1	90	0.00	29.870 
20:30	84.9	84.9	87.9	56	67.4	0	2	90	0.00	29.860 
20:35	84.7	84.7	87.3	55	66.7	0	1	90	0.00	29.860 
20:40	84.5	84.5	87.3	56	67.0	0	1	90	0.00	29.860 
20:45	84.3	84.3	87.2	57	67.4	0	0	---	0.00	29.878 
20:50	84.1	84.1	87.2	58	67.7	0	0	---	0.00	29.878 
20:55	83.8	83.8	86.7	58	67.4	0	0	---	0.00	29.878 
21:00	83.6	83.6	86.6	59	67.7	0	0	---	0.00	29.880 
21:05	83.0	83.0	85.9	60	67.7	0	0	---	0.00	29.880 
21:10	82.6	82.6	85.7	62	68.2	0	0	---	0.00	29.880 
21:15	82.4	82.4	85.6	63	68.5	0	0	---	0.00	29.890 
21:20	82.0	82.0	85.0	63	68.1	0	0	---	0.00	29.890 
21:25	81.8	81.8	84.7	63	67.9	0	0	---	0.00	29.890 
21:30	81.4	81.4	84.3	64	68.0	0	0	---	0.00	29.892 
21:35	81.1	81.1	84.1	66	68.6	0	0	---	0.00	29.892 
21:40	80.7	80.7	83.5	66	68.3	0	0	---	0.00	29.892 
21:45	80.3	80.3	83.3	69	69.2	0	0	---	0.00	29.901 
21:50	79.9	79.9	82.7	69	68.8	0	0	---	0.00	29.901 
21:55	79.8	79.8	82.9	72	69.9	0	0	---	0.00	29.901 
22:00	79.8	79.8	83.0	73	70.4	0	0	---	0.00	29.911 
22:05	79.6	79.6	82.6	73	70.2	0	0	---	0.00	29.911 
22:10	79.4	79.4	82.4	74	70.4	0	0	---	0.00	29.911 
22:15	79.2	79.2	82.1	74	70.2	0	0	---	0.00	29.917 
22:20	79.0	79.0	81.7	74	70.0	0	0	---	0.00	29.917 
22:25	78.8	78.8	81.3	73	69.4	0	0	---	0.00	29.917 
22:30	78.8	78.8	81.3	73	69.4	0	0	---	0.00	29.922 
22:35	78.6	78.6	81.0	72	68.8	0	0	---	0.00	29.922 
22:40	78.6	78.6	81.0	72	68.8	0	0	---	0.00	29.922 
22:45	78.5	78.5	80.7	70	67.9	0	0	---	0.00	29.934 
22:50	78.5	78.5	80.7	69	67.5	0	0	---	0.00	29.934 
22:55	78.5	78.5	80.7	69	67.5	0	0	---	0.00	29.934 
23:00	78.5	78.5	80.6	68	67.0	0	0	---	0.00	29.938 
23:05	78.3	78.3	80.3	67	66.4	0	1	90	0.00	29.938 
23:10	78.3	78.3	80.2	66	66.0	0	0	---	0.00	29.938 
23:15	78.5	78.5	80.5	66	66.2	0	0	---	0.00	29.938 
23:20	78.5	78.5	80.5	67	66.6	0	0	---	0.00	29.938 
23:25	78.5	78.5	80.6	68	67.0	0	0	---	0.00	29.938 
23:30	78.3	78.3	80.3	68	66.8	0	1	90	0.00	29.943 
23:35	78.3	78.3	80.3	67	66.4	0	0	---	0.00	29.943 
23:40	78.3	78.3	80.3	68	66.8	0	1	90	0.00	29.943 
23:45	78.3	78.3	80.3	68	66.8	0	1	90	0.00	29.937 
23:50	78.1	78.1	80.1	68	66.7	0	1	90	0.00	29.937 
23:55	77.9	77.9	79.9	69	66.9	0	2	90	0.00	29.937 

CoCoRaHS
IN-AL-39
A2 Web Hosting
Creative Commons License
GoDaddy
search engine by freefind advanced

loaded 2018-11-17 18:40:21 • last modified 2010-11-18 10:43:29
Privacy PolicyDisclaimer
• wx.awcolley.com is powered by PmWiki v.2002016 •
• all content (unless otherwise noted) © 2018 A W Colley